sensor_id;sensor_type;location;lat;lon;timestamp;P1;durP1;ratioP1;P2;durP2;ratioP2
70148;SDS011;57514;52.164;5.282;2024-03-17T00:00:20;12.73;;;3.78;;
70148;SDS011;57514;52.164;5.282;2024-03-17T00:02:46;13.27;;;3.80;;
70148;SDS011;57514;52.164;5.282;2024-03-17T00:05:13;11.75;;;3.72;;
70148;SDS011;57514;52.164;5.282;2024-03-17T00:07:39;11.35;;;4.22;;
70148;SDS011;57514;52.164;5.282;2024-03-17T00:10:06;14.85;;;3.53;;
70148;SDS011;57514;52.164;5.282;2024-03-17T00:12:33;12.15;;;4.47;;
70148;SDS011;57514;52.164;5.282;2024-03-17T00:15:00;13.13;;;3.65;;
70148;SDS011;57514;52.164;5.282;2024-03-17T00:17:26;11.20;;;3.90;;
70148;SDS011;57514;52.164;5.282;2024-03-17T00:19:53;13.23;;;4.85;;
70148;SDS011;57514;52.164;5.282;2024-03-17T00:22:19;14.73;;;4.57;;
70148;SDS011;57514;52.164;5.282;2024-03-17T00:24:47;10.10;;;4.32;;
70148;SDS011;57514;52.164;5.282;2024-03-17T00:27:14;13.32;;;4.38;;
70148;SDS011;57514;52.164;5.282;2024-03-17T00:29:40;12.77;;;4.50;;
70148;SDS011;57514;52.164;5.282;2024-03-17T00:32:07;12.25;;;4.50;;
70148;SDS011;57514;52.164;5.282;2024-03-17T00:34:36;11.15;;;4.07;;
70148;SDS011;57514;52.164;5.282;2024-03-17T00:37:02;9.77;;;4.28;;
70148;SDS011;57514;52.164;5.282;2024-03-17T00:39:29;9.50;;;3.72;;
70148;SDS011;57514;52.164;5.282;2024-03-17T00:41:55;11.55;;;4.80;;
70148;SDS011;57514;52.164;5.282;2024-03-17T00:44:23;9.13;;;3.92;;
70148;SDS011;57514;52.164;5.282;2024-03-17T00:46:49;11.68;;;3.90;;
70148;SDS011;57514;52.164;5.282;2024-03-17T00:49:15;8.82;;;3.65;;
70148;SDS011;57514;52.164;5.282;2024-03-17T00:51:42;9.93;;;4.30;;
70148;SDS011;57514;52.164;5.282;2024-03-17T00:54:09;9.23;;;4.78;;
70148;SDS011;57514;52.164;5.282;2024-03-17T00:56:35;10.90;;;4.25;;
70148;SDS011;57514;52.164;5.282;2024-03-17T00:59:02;9.30;;;4.00;;
70148;SDS011;57514;52.164;5.282;2024-03-17T01:01:28;9.43;;;4.13;;
70148;SDS011;57514;52.164;5.282;2024-03-17T01:03:54;9.05;;;3.78;;
70148;SDS011;57514;52.164;5.282;2024-03-17T01:06:21;9.73;;;3.72;;
70148;SDS011;57514;52.164;5.282;2024-03-17T01:08:48;9.18;;;3.90;;
70148;SDS011;57514;52.164;5.282;2024-03-17T01:11:15;9.75;;;3.95;;
70148;SDS011;57514;52.164;5.282;2024-03-17T01:13:47;9.25;;;4.10;;
70148;SDS011;57514;52.164;5.282;2024-03-17T01:16:13;7.70;;;3.70;;
70148;SDS011;57514;52.164;5.282;2024-03-17T01:18:41;11.75;;;4.00;;
70148;SDS011;57514;52.164;5.282;2024-03-17T01:21:08;9.07;;;3.92;;
70148;SDS011;57514;52.164;5.282;2024-03-17T01:23:35;9.40;;;3.58;;
70148;SDS011;57514;52.164;5.282;2024-03-17T01:26:01;9.90;;;3.95;;
70148;SDS011;57514;52.164;5.282;2024-03-17T01:28:29;10.32;;;3.53;;
70148;SDS011;57514;52.164;5.282;2024-03-17T01:30:55;8.63;;;4.05;;
70148;SDS011;57514;52.164;5.282;2024-03-17T01:33:22;11.55;;;4.15;;
70148;SDS011;57514;52.164;5.282;2024-03-17T01:35:48;11.48;;;4.05;;
70148;SDS011;57514;52.164;5.282;2024-03-17T01:38:15;11.75;;;3.65;;
70148;SDS011;57514;52.164;5.282;2024-03-17T01:40:41;9.05;;;3.92;;
70148;SDS011;57514;52.164;5.282;2024-03-17T01:43:11;10.55;;;4.43;;
70148;SDS011;57514;52.164;5.282;2024-03-17T01:45:37;9.57;;;3.75;;
70148;SDS011;57514;52.164;5.282;2024-03-17T01:48:04;9.25;;;4.38;;
70148;SDS011;57514;52.164;5.282;2024-03-17T01:53:07;14.27;;;4.10;;
70148;SDS011;57514;52.164;5.282;2024-03-17T01:55:36;10.13;;;3.90;;
70148;SDS011;57514;52.164;5.282;2024-03-17T01:58:03;11.70;;;3.65;;
70148;SDS011;57514;52.164;5.282;2024-03-17T02:00:33;14.50;;;4.00;;
70148;SDS011;57514;52.164;5.282;2024-03-17T02:03:05;11.20;;;4.32;;
70148;SDS011;57514;52.164;5.282;2024-03-17T02:05:32;12.07;;;4.20;;
70148;SDS011;57514;52.164;5.282;2024-03-17T02:08:03;11.48;;;4.05;;
70148;SDS011;57514;52.164;5.282;2024-03-17T02:10:30;13.60;;;4.63;;
70148;SDS011;57514;52.164;5.282;2024-03-17T02:12:56;9.25;;;4.18;;
70148;SDS011;57514;52.164;5.282;2024-03-17T02:15:23;12.65;;;4.72;;
70148;SDS011;57514;52.164;5.282;2024-03-17T02:17:49;11.95;;;4.60;;
70148;SDS011;57514;52.164;5.282;2024-03-17T02:20:16;12.57;;;4.68;;
70148;SDS011;57514;52.164;5.282;2024-03-17T02:22:43;10.82;;;4.88;;
70148;SDS011;57514;52.164;5.282;2024-03-17T02:25:09;14.27;;;4.95;;
70148;SDS011;57514;52.164;5.282;2024-03-17T02:27:36;16.17;;;5.63;;
70148;SDS011;57514;52.164;5.282;2024-03-17T02:30:02;10.80;;;4.93;;
70148;SDS011;57514;52.164;5.282;2024-03-17T02:32:32;14.45;;;5.28;;
70148;SDS011;57514;52.164;5.282;2024-03-17T02:34:59;10.48;;;5.30;;
70148;SDS011;57514;52.164;5.282;2024-03-17T02:37:25;15.73;;;5.18;;
70148;SDS011;57514;52.164;5.282;2024-03-17T02:39:52;13.40;;;5.10;;
70148;SDS011;57514;52.164;5.282;2024-03-17T02:42:19;13.23;;;5.97;;
70148;SDS011;57514;52.164;5.282;2024-03-17T02:44:45;13.45;;;5.65;;
70148;SDS011;57514;52.164;5.282;2024-03-17T02:47:11;13.88;;;5.53;;
70148;SDS011;57514;52.164;5.282;2024-03-17T02:49:40;13.90;;;6.07;;
70148;SDS011;57514;52.164;5.282;2024-03-17T02:52:10;12.45;;;5.80;;
70148;SDS011;57514;52.164;5.282;2024-03-17T02:54:37;13.90;;;6.40;;
70148;SDS011;57514;52.164;5.282;2024-03-17T02:57:04;10.82;;;5.90;;
70148;SDS011;57514;52.164;5.282;2024-03-17T02:59:30;14.40;;;6.45;;
70148;SDS011;57514;52.164;5.282;2024-03-17T03:01:57;11.23;;;5.40;;
70148;SDS011;57514;52.164;5.282;2024-03-17T03:04:24;15.02;;;6.68;;
70148;SDS011;57514;52.164;5.282;2024-03-17T03:06:51;17.98;;;6.70;;
70148;SDS011;57514;52.164;5.282;2024-03-17T03:09:17;14.45;;;6.82;;
70148;SDS011;57514;52.164;5.282;2024-03-17T03:11:56;13.50;;;6.05;;
70148;SDS011;57514;52.164;5.282;2024-03-17T03:14:22;16.63;;;6.10;;
70148;SDS011;57514;52.164;5.282;2024-03-17T03:16:49;15.82;;;6.57;;
70148;SDS011;57514;52.164;5.282;2024-03-17T03:19:16;17.27;;;7.53;;
70148;SDS011;57514;52.164;5.282;2024-03-17T03:21:43;13.93;;;6.90;;
70148;SDS011;57514;52.164;5.282;2024-03-17T03:24:11;17.08;;;5.82;;
70148;SDS011;57514;52.164;5.282;2024-03-17T03:26:37;14.32;;;7.70;;
70148;SDS011;57514;52.164;5.282;2024-03-17T03:29:04;12.98;;;6.53;;
70148;SDS011;57514;52.164;5.282;2024-03-17T03:31:31;14.27;;;6.57;;
70148;SDS011;57514;52.164;5.282;2024-03-17T03:33:58;16.20;;;7.18;;
70148;SDS011;57514;52.164;5.282;2024-03-17T03:36:26;14.13;;;7.03;;
70148;SDS011;57514;52.164;5.282;2024-03-17T03:38:54;14.35;;;6.65;;
70148;SDS011;57514;52.164;5.282;2024-03-17T03:41:22;16.42;;;7.03;;
70148;SDS011;57514;52.164;5.282;2024-03-17T03:43:50;16.15;;;7.45;;
70148;SDS011;57514;52.164;5.282;2024-03-17T03:46:16;16.50;;;6.80;;
70148;SDS011;57514;52.164;5.282;2024-03-17T03:48:42;13.02;;;6.75;;
70148;SDS011;57514;52.164;5.282;2024-03-17T03:51:09;16.25;;;6.70;;
70148;SDS011;57514;52.164;5.282;2024-03-17T03:53:36;15.77;;;7.03;;
70148;SDS011;57514;52.164;5.282;2024-03-17T03:56:04;18.13;;;7.40;;
70148;SDS011;57514;52.164;5.282;2024-03-17T03:58:33;17.80;;;7.78;;
70148;SDS011;57514;52.164;5.282;2024-03-17T04:01:03;15.32;;;6.88;;
70148;SDS011;57514;52.164;5.282;2024-03-17T04:03:31;14.23;;;6.53;;
70148;SDS011;57514;52.164;5.282;2024-03-17T04:06:04;16.55;;;7.65;;
70148;SDS011;57514;52.164;5.282;2024-03-17T04:08:34;15.30;;;7.80;;
70148;SDS011;57514;52.164;5.282;2024-03-17T04:11:01;19.40;;;7.75;;
70148;SDS011;57514;52.164;5.282;2024-03-17T04:13:28;18.52;;;8.45;;
70148;SDS011;57514;52.164;5.282;2024-03-17T04:15:55;18.17;;;7.15;;
70148;SDS011;57514;52.164;5.282;2024-03-17T04:18:25;12.57;;;6.88;;
70148;SDS011;57514;52.164;5.282;2024-03-17T04:20:55;15.43;;;7.97;;
70148;SDS011;57514;52.164;5.282;2024-03-17T04:23:22;14.23;;;7.28;;
70148;SDS011;57514;52.164;5.282;2024-03-17T04:25:49;13.95;;;7.38;;
70148;SDS011;57514;52.164;5.282;2024-03-17T04:28:16;15.10;;;8.32;;
70148;SDS011;57514;52.164;5.282;2024-03-17T04:30:42;15.38;;;7.43;;
70148;SDS011;57514;52.164;5.282;2024-03-17T04:33:09;17.13;;;7.72;;
70148;SDS011;57514;52.164;5.282;2024-03-17T04:35:37;15.45;;;8.13;;
70148;SDS011;57514;52.164;5.282;2024-03-17T04:38:03;19.27;;;8.40;;
70148;SDS011;57514;52.164;5.282;2024-03-17T04:40:34;12.90;;;6.65;;
70148;SDS011;57514;52.164;5.282;2024-03-17T04:43:01;12.55;;;7.15;;
70148;SDS011;57514;52.164;5.282;2024-03-17T04:45:27;15.50;;;8.07;;
70148;SDS011;57514;52.164;5.282;2024-03-17T04:47:53;16.02;;;8.32;;
70148;SDS011;57514;52.164;5.282;2024-03-17T04:50:19;18.38;;;8.35;;
70148;SDS011;57514;52.164;5.282;2024-03-17T04:52:46;16.65;;;8.00;;
70148;SDS011;57514;52.164;5.282;2024-03-17T04:55:14;16.85;;;7.95;;
70148;SDS011;57514;52.164;5.282;2024-03-17T04:57:43;18.60;;;8.77;;
70148;SDS011;57514;52.164;5.282;2024-03-17T05:00:09;15.23;;;8.18;;
70148;SDS011;57514;52.164;5.282;2024-03-17T05:02:37;17.90;;;8.95;;
70148;SDS011;57514;52.164;5.282;2024-03-17T05:05:04;16.92;;;8.07;;
70148;SDS011;57514;52.164;5.282;2024-03-17T05:07:33;14.75;;;7.78;;
70148;SDS011;57514;52.164;5.282;2024-03-17T05:10:00;15.65;;;8.65;;
70148;SDS011;57514;52.164;5.282;2024-03-17T05:12:26;17.77;;;8.07;;
70148;SDS011;57514;52.164;5.282;2024-03-17T05:14:53;16.83;;;7.43;;
70148;SDS011;57514;52.164;5.282;2024-03-17T05:17:19;15.95;;;8.02;;
70148;SDS011;57514;52.164;5.282;2024-03-17T05:19:46;17.23;;;8.48;;
70148;SDS011;57514;52.164;5.282;2024-03-17T05:22:12;15.52;;;8.57;;
70148;SDS011;57514;52.164;5.282;2024-03-17T05:24:39;16.05;;;7.80;;
70148;SDS011;57514;52.164;5.282;2024-03-17T05:27:05;14.90;;;7.82;;
70148;SDS011;57514;52.164;5.282;2024-03-17T05:29:32;15.77;;;8.25;;
70148;SDS011;57514;52.164;5.282;2024-03-17T05:32:01;15.48;;;8.25;;
70148;SDS011;57514;52.164;5.282;2024-03-17T05:34:28;15.90;;;8.18;;
70148;SDS011;57514;52.164;5.282;2024-03-17T05:36:54;14.77;;;7.88;;
70148;SDS011;57514;52.164;5.282;2024-03-17T05:39:20;16.25;;;8.02;;
70148;SDS011;57514;52.164;5.282;2024-03-17T05:41:47;16.52;;;8.30;;
70148;SDS011;57514;52.164;5.282;2024-03-17T05:44:14;15.30;;;7.32;;
70148;SDS011;57514;52.164;5.282;2024-03-17T05:46:41;14.73;;;8.10;;
70148;SDS011;57514;52.164;5.282;2024-03-17T05:49:07;15.48;;;7.93;;
70148;SDS011;57514;52.164;5.282;2024-03-17T05:51:34;13.27;;;7.10;;
70148;SDS011;57514;52.164;5.282;2024-03-17T05:54:00;18.05;;;8.00;;
70148;SDS011;57514;52.164;5.282;2024-03-17T05:56:27;13.98;;;7.28;;
70148;SDS011;57514;52.164;5.282;2024-03-17T05:58:53;15.45;;;7.82;;
70148;SDS011;57514;52.164;5.282;2024-03-17T06:01:19;14.80;;;7.55;;
70148;SDS011;57514;52.164;5.282;2024-03-17T06:03:47;13.15;;;7.97;;
70148;SDS011;57514;52.164;5.282;2024-03-17T06:06:14;16.13;;;8.20;;
70148;SDS011;57514;52.164;5.282;2024-03-17T06:08:40;13.02;;;6.82;;
70148;SDS011;57514;52.164;5.282;2024-03-17T06:11:07;17.50;;;8.13;;
70148;SDS011;57514;52.164;5.282;2024-03-17T06:13:33;14.75;;;7.95;;
70148;SDS011;57514;52.164;5.282;2024-03-17T06:16:02;13.00;;;6.07;;
70148;SDS011;57514;52.164;5.282;2024-03-17T06:18:28;16.80;;;7.45;;
70148;SDS011;57514;52.164;5.282;2024-03-17T06:20:55;12.88;;;7.07;;
70148;SDS011;57514;52.164;5.282;2024-03-17T06:23:23;14.93;;;7.72;;
70148;SDS011;57514;52.164;5.282;2024-03-17T06:25:52;15.38;;;7.53;;
70148;SDS011;57514;52.164;5.282;2024-03-17T06:28:20;14.52;;;7.70;;
70148;SDS011;57514;52.164;5.282;2024-03-17T06:30:57;17.52;;;8.00;;
70148;SDS011;57514;52.164;5.282;2024-03-17T06:33:29;15.18;;;7.35;;
70148;SDS011;57514;52.164;5.282;2024-03-17T06:35:57;14.55;;;7.55;;
70148;SDS011;57514;52.164;5.282;2024-03-17T06:38:23;13.80;;;7.88;;
70148;SDS011;57514;52.164;5.282;2024-03-17T06:40:50;12.82;;;7.35;;
70148;SDS011;57514;52.164;5.282;2024-03-17T06:43:17;16.08;;;7.95;;
70148;SDS011;57514;52.164;5.282;2024-03-17T06:45:43;16.13;;;8.07;;
70148;SDS011;57514;52.164;5.282;2024-03-17T06:48:10;16.50;;;8.07;;
70148;SDS011;57514;52.164;5.282;2024-03-17T06:50:37;13.35;;;6.68;;
70148;SDS011;57514;52.164;5.282;2024-03-17T06:53:06;15.35;;;8.43;;
70148;SDS011;57514;52.164;5.282;2024-03-17T06:55:34;14.95;;;7.93;;
70148;SDS011;57514;52.164;5.282;2024-03-17T06:58:00;14.77;;;8.23;;
70148;SDS011;57514;52.164;5.282;2024-03-17T07:00:28;14.57;;;7.38;;
70148;SDS011;57514;52.164;5.282;2024-03-17T07:02:55;13.93;;;7.13;;
70148;SDS011;57514;52.164;5.282;2024-03-17T07:05:22;15.65;;;8.20;;
70148;SDS011;57514;52.164;5.282;2024-03-17T07:07:48;14.23;;;7.93;;
70148;SDS011;57514;52.164;5.282;2024-03-17T07:10:15;14.30;;;8.50;;
70148;SDS011;57514;52.164;5.282;2024-03-17T07:12:41;14.02;;;7.75;;
70148;SDS011;57514;52.164;5.282;2024-03-17T07:15:08;16.23;;;8.38;;
70148;SDS011;57514;52.164;5.282;2024-03-17T07:17:36;15.93;;;8.45;;
70148;SDS011;57514;52.164;5.282;2024-03-17T07:20:03;10.82;;;5.70;;
70148;SDS011;57514;52.164;5.282;2024-03-17T07:22:33;13.82;;;7.95;;
70148;SDS011;57514;52.164;5.282;2024-03-17T07:25:00;14.48;;;8.18;;
70148;SDS011;57514;52.164;5.282;2024-03-17T07:27:26;15.88;;;8.25;;
70148;SDS011;57514;52.164;5.282;2024-03-17T07:29:53;15.45;;;7.97;;
70148;SDS011;57514;52.164;5.282;2024-03-17T07:32:19;15.65;;;8.25;;
70148;SDS011;57514;52.164;5.282;2024-03-17T07:34:46;14.38;;;8.60;;
70148;SDS011;57514;52.164;5.282;2024-03-17T07:37:12;13.13;;;7.80;;
70148;SDS011;57514;52.164;5.282;2024-03-17T07:39:38;13.95;;;7.88;;
70148;SDS011;57514;52.164;5.282;2024-03-17T07:42:05;17.50;;;9.50;;
70148;SDS011;57514;52.164;5.282;2024-03-17T07:44:32;14.95;;;7.65;;
70148;SDS011;57514;52.164;5.282;2024-03-17T07:47:05;15.10;;;8.13;;
70148;SDS011;57514;52.164;5.282;2024-03-17T07:49:32;13.55;;;8.23;;
70148;SDS011;57514;52.164;5.282;2024-03-17T07:51:58;15.13;;;9.00;;
70148;SDS011;57514;52.164;5.282;2024-03-17T07:54:25;16.67;;;8.50;;
70148;SDS011;57514;52.164;5.282;2024-03-17T07:56:51;15.40;;;8.10;;
70148;SDS011;57514;52.164;5.282;2024-03-17T07:59:18;12.93;;;7.10;;
70148;SDS011;57514;52.164;5.282;2024-03-17T08:01:44;13.70;;;7.40;;
70148;SDS011;57514;52.164;5.282;2024-03-17T08:04:11;13.23;;;6.78;;
70148;SDS011;57514;52.164;5.282;2024-03-17T08:06:38;15.80;;;7.88;;
70148;SDS011;57514;52.164;5.282;2024-03-17T08:09:04;14.23;;;7.78;;
70148;SDS011;57514;52.164;5.282;2024-03-17T08:11:33;15.55;;;7.75;;
70148;SDS011;57514;52.164;5.282;2024-03-17T08:13:59;14.32;;;8.10;;
70148;SDS011;57514;52.164;5.282;2024-03-17T08:16:27;14.05;;;7.90;;
70148;SDS011;57514;52.164;5.282;2024-03-17T08:18:54;14.40;;;7.95;;
70148;SDS011;57514;52.164;5.282;2024-03-17T08:21:21;14.52;;;8.98;;
70148;SDS011;57514;52.164;5.282;2024-03-17T08:23:47;17.52;;;8.77;;
70148;SDS011;57514;52.164;5.282;2024-03-17T08:26:13;15.43;;;7.93;;
70148;SDS011;57514;52.164;5.282;2024-03-17T08:28:40;14.77;;;7.25;;
70148;SDS011;57514;52.164;5.282;2024-03-17T08:31:06;12.70;;;7.25;;
70148;SDS011;57514;52.164;5.282;2024-03-17T08:33:33;11.52;;;6.13;;
70148;SDS011;57514;52.164;5.282;2024-03-17T08:36:00;14.30;;;7.72;;
70148;SDS011;57514;52.164;5.282;2024-03-17T08:38:27;14.15;;;6.43;;
70148;SDS011;57514;52.164;5.282;2024-03-17T08:40:57;14.40;;;7.35;;
70148;SDS011;57514;52.164;5.282;2024-03-17T08:43:24;14.80;;;7.75;;
70148;SDS011;57514;52.164;5.282;2024-03-17T08:45:54;14.07;;;7.35;;
70148;SDS011;57514;52.164;5.282;2024-03-17T08:48:20;12.70;;;6.50;;
70148;SDS011;57514;52.164;5.282;2024-03-17T08:50:51;14.43;;;7.55;;
70148;SDS011;57514;52.164;5.282;2024-03-17T08:53:17;13.05;;;7.18;;
70148;SDS011;57514;52.164;5.282;2024-03-17T08:55:44;12.63;;;5.88;;
70148;SDS011;57514;52.164;5.282;2024-03-17T08:58:10;14.80;;;8.23;;
70148;SDS011;57514;52.164;5.282;2024-03-17T09:00:36;13.27;;;7.43;;
70148;SDS011;57514;52.164;5.282;2024-03-17T09:03:03;15.75;;;7.70;;
70148;SDS011;57514;52.164;5.282;2024-03-17T09:05:31;13.55;;;7.28;;
70148;SDS011;57514;52.164;5.282;2024-03-17T09:07:58;13.25;;;6.50;;
70148;SDS011;57514;52.164;5.282;2024-03-17T09:10:26;15.40;;;8.13;;
70148;SDS011;57514;52.164;5.282;2024-03-17T09:12:52;14.50;;;8.13;;
70148;SDS011;57514;52.164;5.282;2024-03-17T09:15:18;12.02;;;7.18;;
70148;SDS011;57514;52.164;5.282;2024-03-17T09:17:46;14.90;;;7.70;;
70148;SDS011;57514;52.164;5.282;2024-03-17T09:20:12;14.88;;;8.02;;
70148;SDS011;57514;52.164;5.282;2024-03-17T09:22:40;15.90;;;7.95;;
70148;SDS011;57514;52.164;5.282;2024-03-17T09:25:10;13.70;;;7.85;;
70148;SDS011;57514;52.164;5.282;2024-03-17T09:27:36;12.50;;;6.38;;
70148;SDS011;57514;52.164;5.282;2024-03-17T09:30:03;13.57;;;7.35;;
70148;SDS011;57514;52.164;5.282;2024-03-17T09:32:32;12.98;;;7.03;;
70148;SDS011;57514;52.164;5.282;2024-03-17T09:34:58;14.23;;;7.22;;
70148;SDS011;57514;52.164;5.282;2024-03-17T09:37:24;12.93;;;7.07;;
70148;SDS011;57514;52.164;5.282;2024-03-17T09:39:51;13.52;;;7.25;;
70148;SDS011;57514;52.164;5.282;2024-03-17T09:42:17;12.95;;;7.28;;
70148;SDS011;57514;52.164;5.282;2024-03-17T09:44:47;12.95;;;7.15;;
70148;SDS011;57514;52.164;5.282;2024-03-17T09:49:41;14.50;;;7.68;;
70148;SDS011;57514;52.164;5.282;2024-03-17T09:52:08;16.00;;;7.40;;
70148;SDS011;57514;52.164;5.282;2024-03-17T09:54:53;13.38;;;6.82;;
70148;SDS011;57514;52.164;5.282;2024-03-17T09:57:23;12.35;;;6.97;;
70148;SDS011;57514;52.164;5.282;2024-03-17T09:59:50;14.15;;;7.50;;
70148;SDS011;57514;52.164;5.282;2024-03-17T10:02:19;12.40;;;6.93;;
70148;SDS011;57514;52.164;5.282;2024-03-17T10:04:45;12.60;;;6.40;;
70148;SDS011;57514;52.164;5.282;2024-03-17T10:07:12;12.77;;;6.82;;
70148;SDS011;57514;52.164;5.282;2024-03-17T10:09:40;13.98;;;6.88;;
70148;SDS011;57514;52.164;5.282;2024-03-17T10:12:28;11.18;;;5.82;;
70148;SDS011;57514;52.164;5.282;2024-03-17T10:15:00;13.75;;;7.43;;
70148;SDS011;57514;52.164;5.282;2024-03-17T10:17:30;11.82;;;6.18;;
70148;SDS011;57514;52.164;5.282;2024-03-17T10:20:13;14.27;;;7.03;;
70148;SDS011;57514;52.164;5.282;2024-03-17T10:25:27;13.82;;;8.00;;
70148;SDS011;57514;52.164;5.282;2024-03-17T10:27:54;13.82;;;6.10;;
70148;SDS011;57514;52.164;5.282;2024-03-17T10:30:20;13.73;;;7.57;;
70148;SDS011;57514;52.164;5.282;2024-03-17T10:32:54;13.80;;;5.88;;
70148;SDS011;57514;52.164;5.282;2024-03-17T10:35:33;12.07;;;6.30;;
70148;SDS011;57514;52.164;5.282;2024-03-17T10:38:09;13.45;;;5.65;;
70148;SDS011;57514;52.164;5.282;2024-03-17T10:40:37;12.00;;;5.72;;
70148;SDS011;57514;52.164;5.282;2024-03-17T10:43:05;13.80;;;7.15;;
70148;SDS011;57514;52.164;5.282;2024-03-17T10:45:31;12.38;;;6.30;;
70148;SDS011;57514;52.164;5.282;2024-03-17T10:48:06;12.55;;;6.30;;
70148;SDS011;57514;52.164;5.282;2024-03-17T10:50:35;10.48;;;5.07;;
70148;SDS011;57514;52.164;5.282;2024-03-17T10:53:03;12.30;;;6.32;;
70148;SDS011;57514;52.164;5.282;2024-03-17T10:55:43;10.02;;;5.05;;
70148;SDS011;57514;52.164;5.282;2024-03-17T10:58:15;12.38;;;6.07;;
70148;SDS011;57514;52.164;5.282;2024-03-17T11:00:56;11.77;;;6.05;;
70148;SDS011;57514;52.164;5.282;2024-03-17T11:03:22;12.65;;;6.03;;
70148;SDS011;57514;52.164;5.282;2024-03-17T11:05:49;12.05;;;6.10;;
70148;SDS011;57514;52.164;5.282;2024-03-17T11:08:18;12.02;;;5.55;;
70148;SDS011;57514;52.164;5.282;2024-03-17T11:10:51;9.95;;;5.05;;
70148;SDS011;57514;52.164;5.282;2024-03-17T11:13:24;10.48;;;5.78;;
70148;SDS011;57514;52.164;5.282;2024-03-17T11:15:52;11.57;;;5.25;;
70148;SDS011;57514;52.164;5.282;2024-03-17T11:20:58;12.73;;;6.07;;
70148;SDS011;57514;52.164;5.282;2024-03-17T11:23:41;11.77;;;5.68;;
70148;SDS011;57514;52.164;5.282;2024-03-17T11:26:07;9.98;;;5.53;;
70148;SDS011;57514;52.164;5.282;2024-03-17T11:33:58;10.48;;;4.85;;
70148;SDS011;57514;52.164;5.282;2024-03-17T11:36:33;11.43;;;5.10;;
70148;SDS011;57514;52.164;5.282;2024-03-17T11:39:08;11.55;;;5.35;;
70148;SDS011;57514;52.164;5.282;2024-03-17T11:41:51;10.23;;;5.15;;
70148;SDS011;57514;52.164;5.282;2024-03-17T11:49:29;11.30;;;5.07;;
70148;SDS011;57514;52.164;5.282;2024-03-17T11:51:56;12.73;;;5.60;;
70148;SDS011;57514;52.164;5.282;2024-03-17T11:54:25;10.65;;;5.47;;
70148;SDS011;57514;52.164;5.282;2024-03-17T11:56:53;11.15;;;4.25;;
70148;SDS011;57514;52.164;5.282;2024-03-17T11:59:21;12.75;;;6.03;;
70148;SDS011;57514;52.164;5.282;2024-03-17T12:01:48;12.20;;;5.43;;
70148;SDS011;57514;52.164;5.282;2024-03-17T12:04:16;13.82;;;6.72;;
70148;SDS011;57514;52.164;5.282;2024-03-17T12:06:45;11.15;;;6.28;;
70148;SDS011;57514;52.164;5.282;2024-03-17T12:09:21;12.15;;;5.93;;
70148;SDS011;57514;52.164;5.282;2024-03-17T12:11:50;13.63;;;6.70;;
70148;SDS011;57514;52.164;5.282;2024-03-17T12:14:23;12.35;;;6.85;;
70148;SDS011;57514;52.164;5.282;2024-03-17T12:16:51;13.63;;;6.78;;
70148;SDS011;57514;52.164;5.282;2024-03-17T12:19:17;12.75;;;6.78;;
70148;SDS011;57514;52.164;5.282;2024-03-17T12:21:47;13.00;;;6.22;;
70148;SDS011;57514;52.164;5.282;2024-03-17T12:24:18;13.75;;;6.90;;
70148;SDS011;57514;52.164;5.282;2024-03-17T12:26:46;11.75;;;5.88;;
70148;SDS011;57514;52.164;5.282;2024-03-17T12:29:24;13.38;;;6.70;;
70148;SDS011;57514;52.164;5.282;2024-03-17T12:31:56;14.32;;;6.85;;
70148;SDS011;57514;52.164;5.282;2024-03-17T12:34:24;13.55;;;6.57;;
70148;SDS011;57514;52.164;5.282;2024-03-17T12:36:51;12.05;;;6.53;;
70148;SDS011;57514;52.164;5.282;2024-03-17T12:39:20;13.07;;;5.90;;
70148;SDS011;57514;52.164;5.282;2024-03-17T12:42:00;14.52;;;6.88;;
70148;SDS011;57514;52.164;5.282;2024-03-17T12:44:31;12.52;;;7.70;;
70148;SDS011;57514;52.164;5.282;2024-03-17T12:47:01;12.70;;;6.70;;
70148;SDS011;57514;52.164;5.282;2024-03-17T12:49:33;12.25;;;6.57;;
70148;SDS011;57514;52.164;5.282;2024-03-17T12:52:00;12.88;;;7.07;;
70148;SDS011;57514;52.164;5.282;2024-03-17T12:54:27;12.18;;;6.60;;
70148;SDS011;57514;52.164;5.282;2024-03-17T12:57:07;15.07;;;7.13;;
70148;SDS011;57514;52.164;5.282;2024-03-17T12:59:52;12.13;;;6.70;;
70148;SDS011;57514;52.164;5.282;2024-03-17T13:02:41;12.95;;;6.90;;
70148;SDS011;57514;52.164;5.282;2024-03-17T13:05:15;13.02;;;6.43;;
70148;SDS011;57514;52.164;5.282;2024-03-17T13:07:43;15.40;;;6.82;;
70148;SDS011;57514;52.164;5.282;2024-03-17T13:10:15;13.80;;;7.32;;
70148;SDS011;57514;52.164;5.282;2024-03-17T13:12:42;14.48;;;6.60;;
70148;SDS011;57514;52.164;5.282;2024-03-17T13:15:10;12.88;;;6.63;;
70148;SDS011;57514;52.164;5.282;2024-03-17T13:17:44;14.93;;;7.00;;
70148;SDS011;57514;52.164;5.282;2024-03-17T13:20:16;13.55;;;6.47;;
70148;SDS011;57514;52.164;5.282;2024-03-17T13:22:42;10.48;;;5.07;;
70148;SDS011;57514;52.164;5.282;2024-03-17T13:25:19;13.75;;;5.93;;
70148;SDS011;57514;52.164;5.282;2024-03-17T13:27:48;11.65;;;6.32;;
70148;SDS011;57514;52.164;5.282;2024-03-17T13:30:15;13.57;;;7.20;;
70148;SDS011;57514;52.164;5.282;2024-03-17T13:32:42;14.45;;;6.45;;
70148;SDS011;57514;52.164;5.282;2024-03-17T13:35:14;12.65;;;6.15;;
70148;SDS011;57514;52.164;5.282;2024-03-17T13:37:43;12.52;;;7.47;;
70148;SDS011;57514;52.164;5.282;2024-03-17T13:40:11;15.05;;;7.80;;
70148;SDS011;57514;52.164;5.282;2024-03-17T13:42:38;14.32;;;7.72;;
70148;SDS011;57514;52.164;5.282;2024-03-17T13:45:05;9.45;;;5.35;;
70148;SDS011;57514;52.164;5.282;2024-03-17T13:47:34;12.43;;;5.82;;
70148;SDS011;57514;52.164;5.282;2024-03-17T13:50:01;14.45;;;7.10;;
70148;SDS011;57514;52.164;5.282;2024-03-17T13:52:32;12.93;;;5.82;;
70148;SDS011;57514;52.164;5.282;2024-03-17T13:54:58;12.43;;;6.40;;
70148;SDS011;57514;52.164;5.282;2024-03-17T13:57:24;13.32;;;7.15;;
70148;SDS011;57514;52.164;5.282;2024-03-17T13:59:51;12.20;;;5.40;;
70148;SDS011;57514;52.164;5.282;2024-03-17T14:02:17;15.07;;;8.18;;
70148;SDS011;57514;52.164;5.282;2024-03-17T14:04:44;12.65;;;7.13;;
70148;SDS011;57514;52.164;5.282;2024-03-17T14:07:11;15.23;;;7.00;;
70148;SDS011;57514;52.164;5.282;2024-03-17T14:09:37;15.10;;;7.20;;
70148;SDS011;57514;52.164;5.282;2024-03-17T14:12:04;13.10;;;6.50;;
70148;SDS011;57514;52.164;5.282;2024-03-17T14:14:30;10.10;;;5.53;;
70148;SDS011;57514;52.164;5.282;2024-03-17T14:16:56;14.40;;;6.88;;
70148;SDS011;57514;52.164;5.282;2024-03-17T14:19:22;13.23;;;6.93;;
70148;SDS011;57514;52.164;5.282;2024-03-17T14:21:49;11.13;;;6.18;;
70148;SDS011;57514;52.164;5.282;2024-03-17T14:24:16;13.52;;;6.40;;
70148;SDS011;57514;52.164;5.282;2024-03-17T14:26:42;13.75;;;6.60;;
70148;SDS011;57514;52.164;5.282;2024-03-17T14:29:09;14.60;;;6.13;;
70148;SDS011;57514;52.164;5.282;2024-03-17T14:31:35;14.43;;;6.53;;
70148;SDS011;57514;52.164;5.282;2024-03-17T14:34:03;11.73;;;6.25;;
70148;SDS011;57514;52.164;5.282;2024-03-17T14:36:32;11.55;;;5.95;;
70148;SDS011;57514;52.164;5.282;2024-03-17T14:38:59;16.25;;;6.78;;
70148;SDS011;57514;52.164;5.282;2024-03-17T14:41:29;12.50;;;6.95;;
70148;SDS011;57514;52.164;5.282;2024-03-17T14:43:58;13.75;;;6.50;;
70148;SDS011;57514;52.164;5.282;2024-03-17T14:46:25;13.88;;;6.53;;
70148;SDS011;57514;52.164;5.282;2024-03-17T14:48:53;12.65;;;5.75;;
70148;SDS011;57514;52.164;5.282;2024-03-17T14:51:19;11.93;;;4.60;;
70148;SDS011;57514;52.164;5.282;2024-03-17T14:53:49;12.73;;;6.00;;
70148;SDS011;57514;52.164;5.282;2024-03-17T14:56:17;12.45;;;6.45;;
70148;SDS011;57514;52.164;5.282;2024-03-17T14:58:44;14.00;;;6.20;;
70148;SDS011;57514;52.164;5.282;2024-03-17T15:01:12;12.25;;;5.15;;